sensor_id;sensor_type;location;lat;lon;timestamp;P1;durP1;ratioP1;P2;durP2;ratioP2
32752;SDS011;19121;52.428;10.816;2022-07-22T00:01:38;3.47;;;2.08;;
32752;SDS011;19121;52.428;10.816;2022-07-22T00:04:04;2.00;;;1.55;;
32752;SDS011;19121;52.428;10.816;2022-07-22T00:06:29;1.52;;;1.42;;
32752;SDS011;19121;52.428;10.816;2022-07-22T00:08:55;1.70;;;1.52;;
32752;SDS011;19121;52.428;10.816;2022-07-22T00:11:21;2.13;;;1.95;;
32752;SDS011;19121;52.428;10.816;2022-07-22T00:13:47;1.42;;;1.27;;
32752;SDS011;19121;52.428;10.816;2022-07-22T00:16:12;1.80;;;1.70;;
32752;SDS011;19121;52.428;10.816;2022-07-22T00:18:38;2.22;;;1.95;;
32752;SDS011;19121;52.428;10.816;2022-07-22T00:21:04;1.67;;;1.58;;
32752;SDS011;19121;52.428;10.816;2022-07-22T00:23:29;1.92;;;1.70;;
32752;SDS011;19121;52.428;10.816;2022-07-22T00:25:55;3.00;;;2.17;;
32752;SDS011;19121;52.428;10.816;2022-07-22T00:28:21;1.50;;;1.40;;
32752;SDS011;19121;52.428;10.816;2022-07-22T00:30:46;2.47;;;1.50;;
32752;SDS011;19121;52.428;10.816;2022-07-22T00:33:12;1.77;;;1.67;;
32752;SDS011;19121;52.428;10.816;2022-07-22T00:35:37;1.88;;;1.70;;
32752;SDS011;19121;52.428;10.816;2022-07-22T00:38:03;1.75;;;1.63;;
32752;SDS011;19121;52.428;10.816;2022-07-22T00:40:28;1.50;;;1.40;;
32752;SDS011;19121;52.428;10.816;2022-07-22T00:42:54;2.80;;;1.88;;
32752;SDS011;19121;52.428;10.816;2022-07-22T00:45:20;1.95;;;1.58;;
32752;SDS011;19121;52.428;10.816;2022-07-22T00:47:45;1.52;;;1.38;;
32752;SDS011;19121;52.428;10.816;2022-07-22T00:50:11;2.20;;;1.52;;
32752;SDS011;19121;52.428;10.816;2022-07-22T00:52:36;1.58;;;1.48;;
32752;SDS011;19121;52.428;10.816;2022-07-22T00:55:03;1.85;;;1.75;;
32752;SDS011;19121;52.428;10.816;2022-07-22T00:57:30;2.22;;;1.55;;
32752;SDS011;19121;52.428;10.816;2022-07-22T00:59:56;2.22;;;1.65;;
32752;SDS011;19121;52.428;10.816;2022-07-22T01:02:21;1.63;;;1.50;;
32752;SDS011;19121;52.428;10.816;2022-07-22T01:04:47;1.83;;;1.67;;
32752;SDS011;19121;52.428;10.816;2022-07-22T01:07:13;2.45;;;1.67;;
32752;SDS011;19121;52.428;10.816;2022-07-22T01:09:41;1.63;;;1.52;;
32752;SDS011;19121;52.428;10.816;2022-07-22T01:12:08;2.17;;;1.67;;
32752;SDS011;19121;52.428;10.816;2022-07-22T01:14:34;1.60;;;1.27;;
32752;SDS011;19121;52.428;10.816;2022-07-22T01:17:00;1.75;;;1.65;;
32752;SDS011;19121;52.428;10.816;2022-07-22T01:19:25;1.73;;;1.63;;
32752;SDS011;19121;52.428;10.816;2022-07-22T01:21:51;1.92;;;1.80;;
32752;SDS011;19121;52.428;10.816;2022-07-22T01:24:16;1.48;;;1.38;;
32752;SDS011;19121;52.428;10.816;2022-07-22T01:26:42;2.60;;;1.90;;
32752;SDS011;19121;52.428;10.816;2022-07-22T01:29:07;1.60;;;1.33;;
32752;SDS011;19121;52.428;10.816;2022-07-22T01:31:33;1.85;;;1.50;;
32752;SDS011;19121;52.428;10.816;2022-07-22T01:33:59;1.40;;;1.30;;
32752;SDS011;19121;52.428;10.816;2022-07-22T01:36:24;2.00;;;1.65;;
32752;SDS011;19121;52.428;10.816;2022-07-22T01:38:50;1.83;;;1.60;;
32752;SDS011;19121;52.428;10.816;2022-07-22T01:41:15;2.20;;;2.00;;
32752;SDS011;19121;52.428;10.816;2022-07-22T01:43:41;1.33;;;1.23;;
32752;SDS011;19121;52.428;10.816;2022-07-22T01:46:06;1.75;;;1.65;;
32752;SDS011;19121;52.428;10.816;2022-07-22T01:48:32;1.30;;;1.20;;
32752;SDS011;19121;52.428;10.816;2022-07-22T01:50:58;1.98;;;1.88;;
32752;SDS011;19121;52.428;10.816;2022-07-22T01:53:24;1.50;;;1.35;;
32752;SDS011;19121;52.428;10.816;2022-07-22T01:55:49;2.20;;;1.63;;
32752;SDS011;19121;52.428;10.816;2022-07-22T01:58:15;1.48;;;1.17;;
32752;SDS011;19121;52.428;10.816;2022-07-22T02:00:41;1.27;;;1.15;;
32752;SDS011;19121;52.428;10.816;2022-07-22T02:03:07;1.60;;;1.50;;
32752;SDS011;19121;52.428;10.816;2022-07-22T02:05:33;1.40;;;1.30;;
32752;SDS011;19121;52.428;10.816;2022-07-22T02:08:05;1.40;;;1.30;;
32752;SDS011;19121;52.428;10.816;2022-07-22T02:10:32;1.80;;;1.40;;
32752;SDS011;19121;52.428;10.816;2022-07-22T02:12:58;2.00;;;1.83;;
32752;SDS011;19121;52.428;10.816;2022-07-22T02:15:24;2.58;;;1.73;;
32752;SDS011;19121;52.428;10.816;2022-07-22T02:17:50;1.42;;;1.33;;
32752;SDS011;19121;52.428;10.816;2022-07-22T02:20:16;1.60;;;1.40;;
32752;SDS011;19121;52.428;10.816;2022-07-22T02:22:41;1.98;;;1.30;;
32752;SDS011;19121;52.428;10.816;2022-07-22T02:25:07;2.65;;;1.83;;
32752;SDS011;19121;52.428;10.816;2022-07-22T02:27:33;1.27;;;1.17;;
32752;SDS011;19121;52.428;10.816;2022-07-22T02:29:58;1.77;;;1.67;;
32752;SDS011;19121;52.428;10.816;2022-07-22T02:32:24;1.80;;;1.70;;
32752;SDS011;19121;52.428;10.816;2022-07-22T02:34:49;1.63;;;1.50;;
32752;SDS011;19121;52.428;10.816;2022-07-22T02:37:15;2.03;;;1.58;;
32752;SDS011;19121;52.428;10.816;2022-07-22T02:39:40;1.73;;;1.60;;
32752;SDS011;19121;52.428;10.816;2022-07-22T02:42:06;1.77;;;1.67;;
32752;SDS011;19121;52.428;10.816;2022-07-22T02:44:31;1.60;;;1.50;;
32752;SDS011;19121;52.428;10.816;2022-07-22T02:46:57;1.92;;;1.25;;
32752;SDS011;19121;52.428;10.816;2022-07-22T02:49:22;1.27;;;1.17;;
32752;SDS011;19121;52.428;10.816;2022-07-22T02:51:48;1.45;;;1.35;;
32752;SDS011;19121;52.428;10.816;2022-07-22T02:54:13;2.35;;;1.77;;
32752;SDS011;19121;52.428;10.816;2022-07-22T02:56:39;1.63;;;1.52;;
32752;SDS011;19121;52.428;10.816;2022-07-22T02:59:04;1.75;;;1.65;;
32752;SDS011;19121;52.428;10.816;2022-07-22T03:01:30;1.40;;;1.30;;
32752;SDS011;19121;52.428;10.816;2022-07-22T03:03:55;1.65;;;1.45;;
32752;SDS011;19121;52.428;10.816;2022-07-22T03:06:21;1.20;;;1.05;;
32752;SDS011;19121;52.428;10.816;2022-07-22T03:08:46;1.55;;;1.45;;
32752;SDS011;19121;52.428;10.816;2022-07-22T03:11:12;1.52;;;1.42;;
32752;SDS011;19121;52.428;10.816;2022-07-22T03:13:38;1.75;;;1.60;;
32752;SDS011;19121;52.428;10.816;2022-07-22T03:16:03;1.55;;;1.30;;
32752;SDS011;19121;52.428;10.816;2022-07-22T03:18:29;1.40;;;1.30;;
32752;SDS011;19121;52.428;10.816;2022-07-22T03:20:54;1.52;;;1.27;;
32752;SDS011;19121;52.428;10.816;2022-07-22T03:23:20;1.70;;;1.60;;
32752;SDS011;19121;52.428;10.816;2022-07-22T03:25:45;1.83;;;1.73;;
32752;SDS011;19121;52.428;10.816;2022-07-22T03:28:11;2.00;;;1.90;;
32752;SDS011;19121;52.428;10.816;2022-07-22T03:30:36;2.08;;;1.70;;
32752;SDS011;19121;52.428;10.816;2022-07-22T03:33:02;1.35;;;1.25;;
32752;SDS011;19121;52.428;10.816;2022-07-22T03:35:27;1.63;;;1.48;;
32752;SDS011;19121;52.428;10.816;2022-07-22T03:37:53;2.00;;;1.40;;
32752;SDS011;19121;52.428;10.816;2022-07-22T03:40:18;1.92;;;1.63;;
32752;SDS011;19121;52.428;10.816;2022-07-22T03:42:44;1.70;;;1.58;;
32752;SDS011;19121;52.428;10.816;2022-07-22T03:45:09;1.80;;;1.30;;
32752;SDS011;19121;52.428;10.816;2022-07-22T03:47:35;1.40;;;1.30;;
32752;SDS011;19121;52.428;10.816;2022-07-22T03:50:01;1.90;;;1.67;;
32752;SDS011;19121;52.428;10.816;2022-07-22T03:52:27;1.60;;;1.50;;
32752;SDS011;19121;52.428;10.816;2022-07-22T03:54:54;1.40;;;1.30;;
32752;SDS011;19121;52.428;10.816;2022-07-22T03:57:19;1.63;;;1.42;;
32752;SDS011;19121;52.428;10.816;2022-07-22T03:59:45;1.80;;;1.65;;
32752;SDS011;19121;52.428;10.816;2022-07-22T04:02:11;2.03;;;1.85;;
32752;SDS011;19121;52.428;10.816;2022-07-22T04:04:36;1.65;;;1.40;;
32752;SDS011;19121;52.428;10.816;2022-07-22T04:07:02;1.67;;;1.58;;
32752;SDS011;19121;52.428;10.816;2022-07-22T04:09:27;2.08;;;1.70;;
32752;SDS011;19121;52.428;10.816;2022-07-22T04:11:53;1.55;;;1.40;;
32752;SDS011;19121;52.428;10.816;2022-07-22T04:14:18;1.52;;;1.42;;
32752;SDS011;19121;52.428;10.816;2022-07-22T04:16:44;1.60;;;1.50;;
32752;SDS011;19121;52.428;10.816;2022-07-22T04:19:10;1.40;;;1.30;;
32752;SDS011;19121;52.428;10.816;2022-07-22T04:21:36;3.60;;;1.50;;
32752;SDS011;19121;52.428;10.816;2022-07-22T04:24:01;1.92;;;1.50;;
32752;SDS011;19121;52.428;10.816;2022-07-22T04:26:27;1.73;;;1.35;;
32752;SDS011;19121;52.428;10.816;2022-07-22T04:28:53;1.88;;;1.77;;
32752;SDS011;19121;52.428;10.816;2022-07-22T04:31:18;1.33;;;1.20;;
32752;SDS011;19121;52.428;10.816;2022-07-22T04:33:44;1.65;;;1.35;;
32752;SDS011;19121;52.428;10.816;2022-07-22T04:36:09;1.60;;;1.50;;
32752;SDS011;19121;52.428;10.816;2022-07-22T04:38:35;1.65;;;1.55;;
32752;SDS011;19121;52.428;10.816;2022-07-22T04:41:00;1.55;;;1.30;;
32752;SDS011;19121;52.428;10.816;2022-07-22T04:43:26;1.25;;;1.15;;
32752;SDS011;19121;52.428;10.816;2022-07-22T04:45:51;1.40;;;1.30;;
32752;SDS011;19121;52.428;10.816;2022-07-22T04:48:18;1.10;;;1.00;;
32752;SDS011;19121;52.428;10.816;2022-07-22T04:50:43;1.55;;;1.45;;
32752;SDS011;19121;52.428;10.816;2022-07-22T04:53:09;1.48;;;1.33;;
32752;SDS011;19121;52.428;10.816;2022-07-22T04:55:34;1.55;;;1.45;;
32752;SDS011;19121;52.428;10.816;2022-07-22T04:58:00;1.52;;;1.42;;
32752;SDS011;19121;52.428;10.816;2022-07-22T05:00:25;1.50;;;1.40;;
32752;SDS011;19121;52.428;10.816;2022-07-22T05:02:51;1.45;;;1.25;;
32752;SDS011;19121;52.428;10.816;2022-07-22T05:05:17;1.33;;;1.23;;
32752;SDS011;19121;52.428;10.816;2022-07-22T05:07:42;1.27;;;1.10;;
32752;SDS011;19121;52.428;10.816;2022-07-22T05:10:08;1.25;;;1.15;;
32752;SDS011;19121;52.428;10.816;2022-07-22T05:12:34;1.63;;;1.13;;
32752;SDS011;19121;52.428;10.816;2022-07-22T05:15:00;1.33;;;1.13;;
32752;SDS011;19121;52.428;10.816;2022-07-22T05:17:26;1.30;;;1.20;;
32752;SDS011;19121;52.428;10.816;2022-07-22T05:19:51;1.00;;;0.90;;
32752;SDS011;19121;52.428;10.816;2022-07-22T05:22:17;2.17;;;1.10;;
32752;SDS011;19121;52.428;10.816;2022-07-22T05:24:42;1.15;;;1.10;;
32752;SDS011;19121;52.428;10.816;2022-07-22T05:27:08;1.58;;;1.45;;
32752;SDS011;19121;52.428;10.816;2022-07-22T05:29:34;1.40;;;1.30;;
32752;SDS011;19121;52.428;10.816;2022-07-22T05:31:59;1.40;;;1.30;;
32752;SDS011;19121;52.428;10.816;2022-07-22T05:34:25;1.20;;;1.10;;
32752;SDS011;19121;52.428;10.816;2022-07-22T05:36:50;1.77;;;1.30;;
32752;SDS011;19121;52.428;10.816;2022-07-22T05:39:16;1.23;;;1.13;;
32752;SDS011;19121;52.428;10.816;2022-07-22T05:41:42;1.80;;;1.17;;
32752;SDS011;19121;52.428;10.816;2022-07-22T05:44:07;1.50;;;1.10;;
32752;SDS011;19121;52.428;10.816;2022-07-22T05:46:33;1.70;;;1.30;;
32752;SDS011;19121;52.428;10.816;2022-07-22T05:48:58;2.03;;;1.13;;
32752;SDS011;19121;52.428;10.816;2022-07-22T05:51:24;1.52;;;1.40;;
32752;SDS011;19121;52.428;10.816;2022-07-22T05:53:49;2.42;;;1.83;;
32752;SDS011;19121;52.428;10.816;2022-07-22T05:56:15;2.50;;;1.98;;
32752;SDS011;19121;52.428;10.816;2022-07-22T05:58:40;3.15;;;1.90;;
32752;SDS011;19121;52.428;10.816;2022-07-22T06:01:07;3.30;;;2.03;;
32752;SDS011;19121;52.428;10.816;2022-07-22T06:03:34;2.38;;;1.48;;
32752;SDS011;19121;52.428;10.816;2022-07-22T06:05:59;2.90;;;1.95;;
32752;SDS011;19121;52.428;10.816;2022-07-22T06:08:27;2.47;;;2.13;;
32752;SDS011;19121;52.428;10.816;2022-07-22T06:10:52;3.05;;;1.70;;
32752;SDS011;19121;52.428;10.816;2022-07-22T06:13:19;2.92;;;1.92;;
32752;SDS011;19121;52.428;10.816;2022-07-22T06:15:45;2.50;;;1.90;;
32752;SDS011;19121;52.428;10.816;2022-07-22T06:18:10;2.83;;;1.65;;
32752;SDS011;19121;52.428;10.816;2022-07-22T06:20:36;2.67;;;2.47;;
32752;SDS011;19121;52.428;10.816;2022-07-22T06:23:01;3.08;;;2.25;;
32752;SDS011;19121;52.428;10.816;2022-07-22T06:25:27;5.60;;;3.35;;
32752;SDS011;19121;52.428;10.816;2022-07-22T06:27:53;4.35;;;2.08;;
32752;SDS011;19121;52.428;10.816;2022-07-22T06:30:18;5.07;;;2.45;;
32752;SDS011;19121;52.428;10.816;2022-07-22T06:32:45;2.72;;;1.50;;
32752;SDS011;19121;52.428;10.816;2022-07-22T06:35:10;5.10;;;2.50;;
32752;SDS011;19121;52.428;10.816;2022-07-22T06:37:36;5.50;;;2.33;;
32752;SDS011;19121;52.428;10.816;2022-07-22T06:40:01;4.25;;;2.20;;
32752;SDS011;19121;52.428;10.816;2022-07-22T06:42:27;4.00;;;2.70;;
32752;SDS011;19121;52.428;10.816;2022-07-22T06:44:53;2.78;;;2.58;;
32752;SDS011;19121;52.428;10.816;2022-07-22T06:47:18;4.88;;;2.70;;
32752;SDS011;19121;52.428;10.816;2022-07-22T06:49:44;3.17;;;2.88;;
32752;SDS011;19121;52.428;10.816;2022-07-22T06:52:09;4.32;;;2.30;;
32752;SDS011;19121;52.428;10.816;2022-07-22T06:54:35;12.18;;;3.88;;
32752;SDS011;19121;52.428;10.816;2022-07-22T06:57:00;4.25;;;2.40;;
32752;SDS011;19121;52.428;10.816;2022-07-22T06:59:26;4.88;;;2.35;;
32752;SDS011;19121;52.428;10.816;2022-07-22T07:01:51;4.47;;;3.42;;
32752;SDS011;19121;52.428;10.816;2022-07-22T07:04:17;3.30;;;2.17;;
32752;SDS011;19121;52.428;10.816;2022-07-22T07:06:43;3.75;;;3.00;;
32752;SDS011;19121;52.428;10.816;2022-07-22T07:09:09;4.32;;;2.65;;
32752;SDS011;19121;52.428;10.816;2022-07-22T07:11:34;2.85;;;2.58;;
32752;SDS011;19121;52.428;10.816;2022-07-22T07:14:00;4.50;;;2.20;;
32752;SDS011;19121;52.428;10.816;2022-07-22T07:16:26;3.63;;;2.38;;
32752;SDS011;19121;52.428;10.816;2022-07-22T07:18:51;7.22;;;3.47;;
32752;SDS011;19121;52.428;10.816;2022-07-22T07:21:17;6.90;;;2.90;;
32752;SDS011;19121;52.428;10.816;2022-07-22T07:23:42;3.97;;;2.70;;
32752;SDS011;19121;52.428;10.816;2022-07-22T07:26:08;3.47;;;2.90;;
32752;SDS011;19121;52.428;10.816;2022-07-22T07:28:33;3.15;;;2.40;;
32752;SDS011;19121;52.428;10.816;2022-07-22T07:30:59;2.95;;;2.65;;
32752;SDS011;19121;52.428;10.816;2022-07-22T07:33:24;3.90;;;2.85;;
32752;SDS011;19121;52.428;10.816;2022-07-22T07:35:50;8.00;;;4.07;;
32752;SDS011;19121;52.428;10.816;2022-07-22T07:38:15;6.15;;;3.53;;
32752;SDS011;19121;52.428;10.816;2022-07-22T07:40:41;6.05;;;3.58;;
32752;SDS011;19121;52.428;10.816;2022-07-22T07:43:07;5.13;;;3.45;;
32752;SDS011;19121;52.428;10.816;2022-07-22T07:45:32;5.57;;;3.72;;
32752;SDS011;19121;52.428;10.816;2022-07-22T07:47:58;4.53;;;3.25;;
32752;SDS011;19121;52.428;10.816;2022-07-22T07:50:24;6.93;;;3.65;;
32752;SDS011;19121;52.428;10.816;2022-07-22T07:52:49;4.03;;;3.63;;
32752;SDS011;19121;52.428;10.816;2022-07-22T07:55:15;4.88;;;4.07;;
32752;SDS011;19121;52.428;10.816;2022-07-22T07:57:41;4.18;;;3.53;;
32752;SDS011;19121;52.428;10.816;2022-07-22T08:00:09;4.63;;;3.75;;
32752;SDS011;19121;52.428;10.816;2022-07-22T08:02:35;5.55;;;3.65;;
32752;SDS011;19121;52.428;10.816;2022-07-22T08:05:01;4.47;;;3.83;;
32752;SDS011;19121;52.428;10.816;2022-07-22T08:07:27;4.50;;;3.63;;
32752;SDS011;19121;52.428;10.816;2022-07-22T08:09:53;3.72;;;3.28;;
32752;SDS011;19121;52.428;10.816;2022-07-22T08:12:19;4.03;;;3.63;;
32752;SDS011;19121;52.428;10.816;2022-07-22T08:14:44;4.43;;;3.17;;
32752;SDS011;19121;52.428;10.816;2022-07-22T08:17:10;4.15;;;3.75;;
32752;SDS011;19121;52.428;10.816;2022-07-22T08:19:35;5.00;;;4.20;;
32752;SDS011;19121;52.428;10.816;2022-07-22T08:22:02;4.82;;;3.85;;
32752;SDS011;19121;52.428;10.816;2022-07-22T08:24:28;4.00;;;3.20;;
32752;SDS011;19121;52.428;10.816;2022-07-22T08:26:53;7.70;;;5.00;;
32752;SDS011;19121;52.428;10.816;2022-07-22T08:29:19;11.00;;;4.10;;
32752;SDS011;19121;52.428;10.816;2022-07-22T08:31:44;3.83;;;3.33;;
32752;SDS011;19121;52.428;10.816;2022-07-22T08:34:10;3.58;;;3.10;;
32752;SDS011;19121;52.428;10.816;2022-07-22T08:36:35;5.38;;;2.92;;
32752;SDS011;19121;52.428;10.816;2022-07-22T08:39:01;3.97;;;3.58;;
32752;SDS011;19121;52.428;10.816;2022-07-22T08:41:27;4.45;;;3.67;;
32752;SDS011;19121;52.428;10.816;2022-07-22T08:43:53;4.85;;;3.72;;
32752;SDS011;19121;52.428;10.816;2022-07-22T08:46:18;4.18;;;3.10;;
32752;SDS011;19121;52.428;10.816;2022-07-22T08:48:44;3.58;;;3.00;;
32752;SDS011;19121;52.428;10.816;2022-07-22T08:51:11;3.58;;;2.92;;
32752;SDS011;19121;52.428;10.816;2022-07-22T08:53:36;3.20;;;2.33;;
32752;SDS011;19121;52.428;10.816;2022-07-22T08:56:02;3.30;;;3.00;;
32752;SDS011;19121;52.428;10.816;2022-07-22T08:58:27;6.40;;;2.53;;
32752;SDS011;19121;52.428;10.816;2022-07-22T09:01:12;4.95;;;3.13;;
32752;SDS011;19121;52.428;10.816;2022-07-22T09:03:47;3.40;;;2.30;;
32752;SDS011;19121;52.428;10.816;2022-07-22T09:06:23;3.15;;;2.70;;
32752;SDS011;19121;52.428;10.816;2022-07-22T09:11:18;3.95;;;2.90;;
32752;SDS011;19121;52.428;10.816;2022-07-22T09:13:45;3.88;;;2.55;;
32752;SDS011;19121;52.428;10.816;2022-07-22T09:16:11;3.60;;;3.30;;
32752;SDS011;19121;52.428;10.816;2022-07-22T09:18:46;4.45;;;2.92;;
32752;SDS011;19121;52.428;10.816;2022-07-22T09:21:14;3.83;;;2.35;;
32752;SDS011;19121;52.428;10.816;2022-07-22T09:23:40;3.25;;;2.95;;
32752;SDS011;19121;52.428;10.816;2022-07-22T09:26:06;4.75;;;2.88;;
32752;SDS011;19121;52.428;10.816;2022-07-22T09:28:32;2.78;;;2.47;;
32752;SDS011;19121;52.428;10.816;2022-07-22T09:30:58;3.35;;;2.65;;
32752;SDS011;19121;52.428;10.816;2022-07-22T09:33:23;7.60;;;2.47;;
32752;SDS011;19121;52.428;10.816;2022-07-22T09:35:49;4.35;;;2.70;;
32752;SDS011;19121;52.428;10.816;2022-07-22T09:38:16;7.72;;;2.83;;
32752;SDS011;19121;52.428;10.816;2022-07-22T09:40:43;2.72;;;2.50;;
32752;SDS011;19121;52.428;10.816;2022-07-22T09:43:11;7.85;;;3.22;;
32752;SDS011;19121;52.428;10.816;2022-07-22T09:45:47;5.45;;;2.97;;
32752;SDS011;19121;52.428;10.816;2022-07-22T09:48:19;4.57;;;2.58;;
32752;SDS011;19121;52.428;10.816;2022-07-22T09:50:46;4.18;;;2.85;;
32752;SDS011;19121;52.428;10.816;2022-07-22T09:53:13;4.68;;;3.13;;
32752;SDS011;19121;52.428;10.816;2022-07-22T09:55:39;5.82;;;3.05;;
32752;SDS011;19121;52.428;10.816;2022-07-22T09:58:05;7.65;;;3.17;;
32752;SDS011;19121;52.428;10.816;2022-07-22T10:00:32;6.68;;;3.13;;
32752;SDS011;19121;52.428;10.816;2022-07-22T10:03:01;6.32;;;2.95;;
32752;SDS011;19121;52.428;10.816;2022-07-22T10:05:30;3.63;;;2.60;;
32752;SDS011;19121;52.428;10.816;2022-07-22T10:07:58;6.10;;;3.28;;
32752;SDS011;19121;52.428;10.816;2022-07-22T10:10:26;6.30;;;2.90;;
32752;SDS011;19121;52.428;10.816;2022-07-22T10:12:54;4.38;;;2.78;;
32752;SDS011;19121;52.428;10.816;2022-07-22T10:15:22;4.50;;;2.88;;
32752;SDS011;19121;52.428;10.816;2022-07-22T10:17:52;3.30;;;2.78;;
32752;SDS011;19121;52.428;10.816;2022-07-22T10:20:21;4.57;;;2.63;;
32752;SDS011;19121;52.428;10.816;2022-07-22T10:22:49;3.92;;;2.28;;
32752;SDS011;19121;52.428;10.816;2022-07-22T10:25:15;3.83;;;2.45;;
32752;SDS011;19121;52.428;10.816;2022-07-22T10:28:00;2.30;;;1.67;;
32752;SDS011;19121;52.428;10.816;2022-07-22T10:30:31;4.93;;;2.17;;
32752;SDS011;19121;52.428;10.816;2022-07-22T10:33:08;2.85;;;1.88;;
32752;SDS011;19121;52.428;10.816;2022-07-22T10:35:35;3.35;;;2.13;;
32752;SDS011;19121;52.428;10.816;2022-07-22T10:38:11;4.68;;;1.77;;
32752;SDS011;19121;52.428;10.816;2022-07-22T10:43:15;3.00;;;2.28;;
32752;SDS011;19121;52.428;10.816;2022-07-22T10:45:46;4.72;;;2.80;;
32752;SDS011;19121;52.428;10.816;2022-07-22T10:48:22;3.70;;;2.13;;
32752;SDS011;19121;52.428;10.816;2022-07-22T10:50:50;4.40;;;2.85;;
32752;SDS011;19121;52.428;10.816;2022-07-22T10:56:25;5.97;;;3.40;;
32752;SDS011;19121;52.428;10.816;2022-07-22T11:01:22;6.07;;;2.65;;
32752;SDS011;19121;52.428;10.816;2022-07-22T11:03:50;4.72;;;2.72;;
32752;SDS011;19121;52.428;10.816;2022-07-22T11:06:17;4.22;;;2.42;;
32752;SDS011;19121;52.428;10.816;2022-07-22T11:08:43;3.08;;;2.28;;
32752;SDS011;19121;52.428;10.816;2022-07-22T11:11:10;5.93;;;2.65;;
32752;SDS011;19121;52.428;10.816;2022-07-22T11:13:36;3.65;;;2.20;;
32752;SDS011;19121;52.428;10.816;2022-07-22T11:19:01;4.72;;;2.90;;
32752;SDS011;19121;52.428;10.816;2022-07-22T11:21:33;5.55;;;3.15;;
32752;SDS011;19121;52.428;10.816;2022-07-22T11:24:01;2.83;;;1.92;;
32752;SDS011;19121;52.428;10.816;2022-07-22T11:26:37;11.73;;;2.53;;
32752;SDS011;19121;52.428;10.816;2022-07-22T11:29:09;3.43;;;2.60;;
32752;SDS011;19121;52.428;10.816;2022-07-22T11:31:36;3.70;;;1.80;;
32752;SDS011;19121;52.428;10.816;2022-07-22T11:36:37;4.93;;;2.67;;
32752;SDS011;19121;52.428;10.816;2022-07-22T11:39:03;2.63;;;2.00;;
32752;SDS011;19121;52.428;10.816;2022-07-22T11:41:30;5.57;;;2.80;;
32752;SDS011;19121;52.428;10.816;2022-07-22T11:43:56;2.50;;;1.95;;
32752;SDS011;19121;52.428;10.816;2022-07-22T11:46:22;3.20;;;2.85;;
32752;SDS011;19121;52.428;10.816;2022-07-22T11:48:50;3.67;;;2.15;;
32752;SDS011;19121;52.428;10.816;2022-07-22T11:51:17;3.22;;;2.78;;
32752;SDS011;19121;52.428;10.816;2022-07-22T11:53:42;4.85;;;2.53;;
32752;SDS011;19121;52.428;10.816;2022-07-22T11:56:09;3.53;;;2.42;;
32752;SDS011;19121;52.428;10.816;2022-07-22T11:58:56;4.25;;;3.28;;
32752;SDS011;19121;52.428;10.816;2022-07-22T12:01:25;5.10;;;2.50;;
32752;SDS011;19121;52.428;10.816;2022-07-22T12:03:56;4.22;;;2.53;;
32752;SDS011;19121;52.428;10.816;2022-07-22T12:06:24;4.65;;;2.60;;
32752;SDS011;19121;52.428;10.816;2022-07-22T12:08:55;3.67;;;2.85;;
32752;SDS011;19121;52.428;10.816;2022-07-22T12:11:26;3.72;;;2.83;;
32752;SDS011;19121;52.428;10.816;2022-07-22T12:13:52;3.28;;;1.75;;
32752;SDS011;19121;52.428;10.816;2022-07-22T12:16:22;5.10;;;2.70;;
32752;SDS011;19121;52.428;10.816;2022-07-22T12:18:50;3.58;;;2.42;;
32752;SDS011;19121;52.428;10.816;2022-07-22T12:21:24;3.75;;;2.47;;
32752;SDS011;19121;52.428;10.816;2022-07-22T12:26:36;2.70;;;2.40;;
32752;SDS011;19121;52.428;10.816;2022-07-22T12:30:09;6.53;;;3.38;;
32752;SDS011;19121;52.428;10.816;2022-07-22T12:32:43;5.70;;;2.70;;
32752;SDS011;19121;52.428;10.816;2022-07-22T12:37:25;5.65;;;2.28;;
32752;SDS011;19121;52.428;10.816;2022-07-22T12:39:54;5.80;;;2.53;;
32752;SDS011;19121;52.428;10.816;2022-07-22T12:42:22;8.43;;;3.22;;
32752;SDS011;19121;52.428;10.816;2022-07-22T12:45:08;5.97;;;3.15;;
32752;SDS011;19121;52.428;10.816;2022-07-22T12:47:50;4.75;;;2.17;;
32752;SDS011;19121;52.428;10.816;2022-07-22T12:52:50;5.68;;;2.53;;
32752;SDS011;19121;52.428;10.816;2022-07-22T12:55:16;4.85;;;2.15;;
32752;SDS011;19121;52.428;10.816;2022-07-22T12:57:42;3.42;;;2.60;;
32752;SDS011;19121;52.428;10.816;2022-07-22T13:00:08;5.43;;;2.33;;
32752;SDS011;19121;52.428;10.816;2022-07-22T13:02:35;3.92;;;2.30;;
32752;SDS011;19121;52.428;10.816;2022-07-22T13:05:00;5.47;;;2.05;;
32752;SDS011;19121;52.428;10.816;2022-07-22T13:07:26;4.68;;;3.83;;
32752;SDS011;19121;52.428;10.816;2022-07-22T13:09:51;6.85;;;2.38;;
32752;SDS011;19121;52.428;10.816;2022-07-22T13:12:17;4.05;;;2.38;;
32752;SDS011;19121;52.428;10.816;2022-07-22T13:14:42;7.50;;;3.00;;
32752;SDS011;19121;52.428;10.816;2022-07-22T13:17:07;9.00;;;4.18;;
32752;SDS011;19121;52.428;10.816;2022-07-22T13:19:33;6.95;;;2.88;;
32752;SDS011;19121;52.428;10.816;2022-07-22T13:21:59;5.75;;;2.70;;
32752;SDS011;19121;52.428;10.816;2022-07-22T13:24:24;6.22;;;3.53;;
32752;SDS011;19121;52.428;10.816;2022-07-22T13:26:50;5.18;;;2.83;;
32752;SDS011;19121;52.428;10.816;2022-07-22T13:29:16;3.15;;;2.50;;
32752;SDS011;19121;52.428;10.816;2022-07-22T13:31:42;6.20;;;3.60;;
32752;SDS011;19121;52.428;10.816;2022-07-22T13:34:07;5.60;;;2.47;;
32752;SDS011;19121;52.428;10.816;2022-07-22T13:36:33;4.70;;;2.95;;
32752;SDS011;19121;52.428;10.816;2022-07-22T13:38:59;3.83;;;2.92;;
32752;SDS011;19121;52.428;10.816;2022-07-22T13:41:24;5.28;;;3.38;;
32752;SDS011;19121;52.428;10.816;2022-07-22T13:43:50;4.45;;;3.38;;
32752;SDS011;19121;52.428;10.816;2022-07-22T13:46:16;4.68;;;3.28;;
32752;SDS011;19121;52.428;10.816;2022-07-22T13:48:43;4.53;;;3.20;;
32752;SDS011;19121;52.428;10.816;2022-07-22T13:51:09;4.10;;;2.75;;
32752;SDS011;19121;52.428;10.816;2022-07-22T13:53:35;4.85;;;3.22;;
32752;SDS011;19121;52.428;10.816;2022-07-22T13:56:00;6.30;;;3.25;;
32752;SDS011;19121;52.428;10.816;2022-07-22T13:58:26;4.57;;;2.72;;
32752;SDS011;19121;52.428;10.816;2022-07-22T14:00:52;3.13;;;2.72;;
32752;SDS011;19121;52.428;10.816;2022-07-22T14:03:17;4.32;;;2.53;;
32752;SDS011;19121;52.428;10.816;2022-07-22T14:05:43;5.50;;;2.63;;
32752;SDS011;19121;52.428;10.816;2022-07-22T14:08:09;7.10;;;2.90;;
32752;SDS011;19121;52.428;10.816;2022-07-22T14:10:34;4.63;;;2.35;;
32752;SDS011;19121;52.428;10.816;2022-07-22T14:13:00;4.63;;;2.42;;
32752;SDS011;19121;52.428;10.816;2022-07-22T14:15:25;4.85;;;3.00;;
32752;SDS011;19121;52.428;10.816;2022-07-22T14:17:51;3.63;;;2.30;;
32752;SDS011;19121;52.428;10.816;2022-07-22T14:20:16;6.28;;;2.65;;
32752;SDS011;19121;52.428;10.816;2022-07-22T14:22:42;3.28;;;2.30;;
32752;SDS011;19121;52.428;10.816;2022-07-22T14:25:07;3.17;;;2.25;;
32752;SDS011;19121;52.428;10.816;2022-07-22T14:27:33;4.63;;;2.58;;
32752;SDS011;19121;52.428;10.816;2022-07-22T14:29:58;5.93;;;3.17;;
32752;SDS011;19121;52.428;10.816;2022-07-22T14:32:24;6.13;;;1.92;;
32752;SDS011;19121;52.428;10.816;2022-07-22T14:34:49;4.13;;;2.55;;
32752;SDS011;19121;52.428;10.816;2022-07-22T14:37:15;3.05;;;2.65;;
32752;SDS011;19121;52.428;10.816;2022-07-22T14:39:40;5.25;;;2.42;;
32752;SDS011;19121;52.428;10.816;2022-07-22T14:42:06;5.25;;;2.63;;
32752;SDS011;19121;52.428;10.816;2022-07-22T14:44:31;4.20;;;3.17;;
32752;SDS011;19121;52.428;10.816;2022-07-22T14:46:56;2.70;;;2.20;;
32752;SDS011;19121;52.428;10.816;2022-07-22T14:49:22;3.90;;;2.35;;
32752;SDS011;19121;52.428;10.816;2022-07-22T14:51:48;3.00;;;2.30;;
32752;SDS011;19121;52.428;10.816;2022-07-22T14:54:13;5.55;;;2.35;;